Time;durP1;ratioP1;P1;durP2;ratioP2;P2;SDS_P1;SDS_P2;PMS_P1;PMS_P2;Temp;Humidity;BMP_temperature;BMP_pressure;BME280_temperature;BME280_humidity;BME280_pressure;Samples;Min_cycle;Max_cycle;Signal;HPM_P1;HPM_P2
2023/03/20 00:01:22;;;;;;;14.43;10.07;;;10.80;99.90;;;;;;5052542;28;20417;-74
2023/03/20 00:03:49;;;;;;;16.53;11.30;;;10.80;99.90;;;;;;5049479;28;20445;-71
2023/03/20 00:06:16;;;;;;;16.37;12.07;;;10.80;99.90;;;;;;5032683;28;20402;-73
2023/03/20 00:08:46;;;;;;;16.63;10.90;;;10.80;99.90;;;;;;5031157;28;20822;-73
2023/03/20 00:11:25;;;;;;;19.03;12.17;;;10.80;99.90;;;;;;5031397;28;20407;-71
2023/03/20 00:13:51;;;;;;;18.07;11.40;;;10.80;99.90;;;;;;5032400;28;20448;-71
2023/03/20 00:16:17;;;;;;;16.83;11.63;;;10.70;99.90;;;;;;5032462;28;20947;-71
2023/03/20 00:18:42;;;;;;;17.27;11.13;;;10.70;99.90;;;;;;5032040;28;20445;-71
2023/03/20 00:21:26;;;;;;;22.17;12.40;;;10.70;99.90;;;;;;5032368;28;20528;-71
2023/03/20 00:23:53;;;;;;;17.10;11.40;;;10.70;99.90;;;;;;5031193;28;20225;-72
2023/03/20 00:26:29;;;;;;;19.50;12.27;;;10.60;99.90;;;;;;5032214;28;20489;-73
2023/03/20 00:28:55;;;;;;;22.50;12.87;;;10.60;99.90;;;;;;5031918;28;20456;-71
2023/03/20 00:31:25;;;;;;;21.10;12.97;;;10.60;99.90;;;;;;5032181;28;20904;-71
2023/03/20 00:33:59;;;;;;;19.03;12.60;;;10.60;99.90;;;;;;5041211;28;20162;-73
2023/03/20 00:36:25;;;;;;;16.37;11.20;;;10.60;99.90;;;;;;5051732;28;20838;-71
2023/03/20 00:38:51;;;;;;;22.13;14.27;;;10.60;99.90;;;;;;5071833;28;20408;-71
2023/03/20 00:41:38;;;;;;;22.07;12.23;;;10.50;99.90;;;;;;5072034;28;20407;-71
2023/03/20 00:44:17;;;;;;;21.50;12.77;;;10.50;99.90;;;;;;5070759;28;20952;-71
2023/03/20 00:46:45;;;;;;;16.40;11.63;;;10.50;99.90;;;;;;5071821;28;20400;-71
2023/03/20 00:49:11;;;;;;;16.40;10.87;;;10.40;99.90;;;;;;5071674;28;20404;-71
2023/03/20 00:51:37;;;;;;;24.60;12.47;;;10.40;99.90;;;;;;5070641;28;20481;-72
2023/03/20 00:54:11;;;;;;;19.47;12.17;;;10.40;99.90;;;;;;5071930;28;20162;-71
2023/03/20 00:56:41;;;;;;;19.00;12.10;;;10.40;99.90;;;;;;5070690;28;20412;-71
2023/03/20 00:59:16;;;;;;;21.23;12.07;;;10.30;99.90;;;;;;5071647;28;20428;-71
2023/03/20 01:01:42;;;;;;;14.90;10.90;;;10.30;99.90;;;;;;5071791;28;20458;-72
2023/03/20 01:04:14;;;;;;;18.30;10.57;;;10.30;99.90;;;;;;5066056;28;20448;-71
2023/03/20 01:06:39;;;;;;;15.20;10.63;;;10.30;99.90;;;;;;5051629;28;20401;-71
2023/03/20 01:09:05;;;;;;;18.63;11.47;;;10.30;99.90;;;;;;5051401;28;20401;-71
2023/03/20 01:11:31;;;;;;;20.20;12.60;;;10.30;99.90;;;;;;5051623;28;20185;-73
2023/03/20 01:13:57;;;;;;;17.83;11.20;;;10.30;99.90;;;;;;5051446;28;20214;-73
2023/03/20 01:16:25;;;;;;;17.27;11.03;;;10.30;99.90;;;;;;5051668;28;20425;-71
2023/03/20 01:18:51;;;;;;;15.90;11.10;;;10.30;99.90;;;;;;5051371;28;20190;-71
2023/03/20 01:21:18;;;;;;;16.63;10.40;;;10.30;99.90;;;;;;5051602;28;20401;-71
2023/03/20 01:23:44;;;;;;;15.47;8.97;;;10.30;99.90;;;;;;5051657;28;20397;-72
2023/03/20 01:26:35;;;;;;;15.77;10.20;;;10.30;99.90;;;;;;5051704;28;20737;-71
2023/03/20 01:29:01;;;;;;;19.80;10.90;;;10.30;99.90;;;;;;5051304;28;20194;-74
2023/03/20 01:31:26;;;;;;;15.83;10.33;;;10.30;99.90;;;;;;5051427;28;20809;-71
2023/03/20 01:33:52;;;;;;;19.47;11.00;;;10.30;99.90;;;;;;5051458;28;20158;-72
2023/03/20 01:36:21;;;;;;;16.43;9.63;;;10.30;99.90;;;;;;5051402;28;20163;-72
2023/03/20 01:38:54;;;;;;;16.83;9.80;;;10.30;99.90;;;;;;5053059;28;20167;-73
2023/03/20 01:41:23;;;;;;;15.40;9.50;;;10.30;99.90;;;;;;5055165;28;20394;-73
2023/03/20 01:43:49;;;;;;;16.10;9.80;;;10.20;99.90;;;;;;5055296;28;20413;-71
2023/03/20 01:46:18;;;;;;;13.17;8.33;;;10.20;99.90;;;;;;5063474;28;20473;-72
2023/03/20 01:48:49;;;;;;;12.07;8.43;;;10.10;99.90;;;;;;5058188;28;20229;-71
2023/03/20 01:51:23;;;;;;;16.83;10.57;;;10.00;99.90;;;;;;5055006;28;20514;-73
2023/03/20 01:54:11;;;;;;;15.60;9.03;;;9.90;99.90;;;;;;5055250;28;20409;-73
2023/03/20 01:56:52;;;;;;;14.93;9.20;;;9.80;99.90;;;;;;5050723;28;20410;-71
2023/03/20 01:59:45;;;;;;;12.60;8.47;;;9.70;99.90;;;;;;5055071;28;20406;-71
2023/03/20 02:02:14;;;;;;;14.20;8.60;;;9.60;99.90;;;;;;5054874;28;20428;-71
2023/03/20 02:04:44;;;;;;;15.80;9.93;;;9.50;99.90;;;;;;5044906;28;20410;-72
2023/03/20 02:07:13;;;;;;;13.70;9.90;;;9.40;99.90;;;;;;5034587;28;20460;-73
2023/03/20 02:09:39;;;;;;;17.93;8.73;;;9.30;99.90;;;;;;5033647;28;20468;-73
2023/03/20 02:12:05;;;;;;;16.90;9.10;;;9.30;99.90;;;;;;5034665;28;20430;-72
2023/03/20 02:14:31;;;;;;;12.20;8.30;;;9.20;99.90;;;;;;5034655;28;20653;-71
2023/03/20 02:16:57;;;;;;;16.90;8.27;;;9.20;99.90;;;;;;5034353;28;20468;-71
2023/03/20 02:19:29;;;;;;;12.50;7.70;;;9.20;99.90;;;;;;5033444;28;20402;-72
2023/03/20 02:22:24;;;;;;;10.50;8.00;;;9.20;99.90;;;;;;5034526;28;20191;-73
2023/03/20 02:25:14;;;;;;;15.30;10.67;;;9.20;99.90;;;;;;5034500;28;20754;-73
2023/03/20 02:28:00;;;;;;;20.87;10.87;;;9.10;99.90;;;;;;5034239;28;20867;-71
2023/03/20 02:30:40;;;;;;;11.60;7.87;;;9.10;99.90;;;;;;5034143;28;20418;-72
2023/03/20 02:33:41;;;;;;;16.33;9.97;;;9.10;99.90;;;;;;5034287;28;20457;-71
2023/03/20 02:36:26;;;;;;;19.70;11.57;;;9.10;99.90;;;;;;5034218;28;20447;-71
2023/03/20 02:39:30;;;;;;;18.00;10.50;;;9.00;99.90;;;;;;5033928;28;20898;-72
2023/03/20 02:42:10;;;;;;;12.83;8.03;;;9.00;99.90;;;;;;5012787;28;20792;-71
2023/03/20 02:44:38;;;;;;;14.00;8.87;;;9.00;99.90;;;;;;5033050;28;20409;-73
2023/03/20 02:47:16;;;;;;;14.17;8.60;;;9.00;99.90;;;;;;5033812;28;20438;-72
2023/03/20 02:49:59;;;;;;;14.60;9.00;;;9.00;99.90;;;;;;5033052;28;20394;-71
2023/03/20 02:52:47;;;;;;;15.97;8.47;;;9.10;99.90;;;;;;5032974;28;20476;-71
2023/03/20 02:55:55;;;;;;;18.20;10.17;;;9.00;99.90;;;;;;5034114;28;20401;-73
2023/03/20 02:58:35;;;;;;;15.70;8.23;;;9.00;99.90;;;;;;5057824;28;20477;-71
2023/03/20 03:01:09;;;;;;;13.60;8.17;;;8.90;99.90;;;;;;5053764;28;20405;-71
2023/03/20 03:03:40;;;;;;;11.97;7.80;;;8.90;99.90;;;;;;5052645;28;20422;-73
2023/03/20 03:06:13;;;;;;;11.67;6.80;;;8.90;99.90;;;;;;5033965;28;20440;-73
2023/03/20 03:08:43;;;;;;;12.80;8.17;;;8.90;99.90;;;;;;5033415;28;20457;-71
2023/03/20 03:11:09;;;;;;;17.43;10.37;;;9.00;99.90;;;;;;5033725;28;20749;-72
2023/03/20 03:13:45;;;;;;;14.03;8.30;;;9.00;99.90;;;;;;5033379;28;20449;-72
2023/03/20 03:16:23;;;;;;;15.23;8.80;;;9.10;99.90;;;;;;5033672;28;20398;-71
2023/03/20 03:18:53;;;;;;;15.10;8.23;;;9.10;99.90;;;;;;5033275;28;20401;-73
2023/03/20 03:21:21;;;;;;;13.80;9.90;;;9.10;99.90;;;;;;5033468;28;20408;-72
2023/03/20 03:23:48;;;;;;;14.70;8.57;;;9.20;99.90;;;;;;5033476;28;20430;-72
2023/03/20 03:26:26;;;;;;;17.17;9.43;;;9.30;99.90;;;;;;5033405;28;20441;-72
2023/03/20 03:28:56;;;;;;;13.63;9.00;;;9.30;99.90;;;;;;5033073;28;20453;-71
2023/03/20 03:31:23;;;;;;;13.83;9.13;;;9.40;99.90;;;;;;5033156;28;20394;-71
2023/03/20 03:33:52;;;;;;;17.20;9.83;;;9.40;99.90;;;;;;5033281;28;20452;-71
2023/03/20 03:36:56;;;;;;;14.17;9.77;;;9.50;99.90;;;;;;5033126;28;20887;-71
2023/03/20 03:39:26;;;;;;;17.03;10.43;;;9.40;99.90;;;;;;5010995;28;20502;-71
2023/03/20 03:42:03;;;;;;;17.40;10.43;;;9.20;99.90;;;;;;5029018;28;20430;-69
2023/03/20 03:44:44;;;;;;;21.13;12.37;;;9.10;99.90;;;;;;5033148;28;20414;-69
2023/03/20 03:47:17;;;;;;;18.03;12.40;;;9.00;99.90;;;;;;5032869;28;20442;-69
2023/03/20 03:49:49;;;;;;;16.87;10.03;;;9.00;99.90;;;;;;5033016;28;20391;-69
2023/03/20 03:52:21;;;;;;;18.10;9.60;;;8.80;99.90;;;;;;5032900;28;20427;-69
2023/03/20 03:54:52;;;;;;;14.93;9.43;;;8.80;99.90;;;;;;5033027;28;20398;-69
2023/03/20 03:57:23;;;;;;;18.50;10.33;;;8.90;99.90;;;;;;5032667;28;20406;-69
2023/03/20 03:59:51;;;;;;;51.53;27.40;;;8.90;99.90;;;;;;5032790;28;20402;-69
2023/03/20 04:02:20;;;;;;;20.30;12.00;;;9.00;99.90;;;;;;5032511;28;20744;-69
2023/03/20 04:04:49;;;;;;;21.47;8.93;;;9.00;99.90;;;;;;5053456;28;20413;-70
2023/03/20 04:07:15;;;;;;;16.60;8.07;;;9.10;99.90;;;;;;5055327;28;20449;-70
2023/03/20 04:09:40;;;;;;;13.37;7.30;;;9.10;99.90;;;;;;5052512;28;20398;-70
2023/03/20 04:12:29;;;;;;;20.00;12.93;;;9.00;99.90;;;;;;5052492;28;20190;-69
2023/03/20 04:14:55;;;;;;;10.97;8.60;;;9.00;99.90;;;;;;5052257;28;20602;-69
2023/03/20 04:17:20;;;;;;;14.20;7.53;;;8.90;99.90;;;;;;5052102;28;20401;-69
2023/03/20 04:19:46;;;;;;;10.67;7.30;;;8.90;99.90;;;;;;5052468;28;20159;-69
2023/03/20 04:22:11;;;;;;;9.47;6.53;;;8.90;99.90;;;;;;5052322;28;20197;-69
2023/03/20 04:24:37;;;;;;;12.53;6.10;;;8.90;99.90;;;;;;5052344;28;20163;-69
2023/03/20 04:27:03;;;;;;;14.97;7.53;;;8.90;99.90;;;;;;5051960;28;20692;-69
2023/03/20 04:29:28;;;;;;;10.17;7.53;;;8.90;99.90;;;;;;5052323;28;20536;-69
2023/03/20 04:31:55;;;;;;;14.43;7.30;;;8.80;99.90;;;;;;5052167;28;20788;-69
2023/03/20 04:34:21;;;;;;;9.00;6.20;;;8.80;99.90;;;;;;5052236;28;20237;-68
2023/03/20 04:36:47;;;;;;;9.53;6.83;;;8.80;99.90;;;;;;5052079;28;20401;-69
2023/03/20 04:39:13;;;;;;;9.13;6.40;;;8.80;99.90;;;;;;5051943;28;20770;-69
2023/03/20 04:41:38;;;;;;;12.53;7.33;;;8.70;99.90;;;;;;5051926;28;20190;-69
2023/03/20 04:44:04;;;;;;;13.37;8.10;;;8.60;99.90;;;;;;5051975;28;20175;-69
2023/03/20 04:46:29;;;;;;;10.53;6.93;;;8.60;99.90;;;;;;5051932;28;20633;-69
2023/03/20 04:48:55;;;;;;;11.40;7.70;;;8.40;99.90;;;;;;5051760;28;20163;-69
2023/03/20 04:51:20;;;;;;;12.90;7.23;;;8.30;99.90;;;;;;5051830;28;20167;-71
2023/03/20 04:53:46;;;;;;;11.93;6.63;;;8.30;99.90;;;;;;5052022;28;20526;-71
2023/03/20 04:56:12;;;;;;;14.23;7.73;;;8.20;99.90;;;;;;5051981;28;20636;-70
2023/03/20 04:58:37;;;;;;;16.53;8.73;;;8.20;99.90;;;;;;5051493;28;20445;-72
2023/03/20 05:01:03;;;;;;;9.77;6.97;;;8.20;99.90;;;;;;5051868;28;20163;-70
2023/03/20 05:03:29;;;;;;;11.07;6.47;;;8.20;99.90;;;;;;5051472;28;20206;-71
2023/03/20 05:05:54;;;;;;;10.17;6.40;;;8.10;99.90;;;;;;5031925;28;20182;-72
2023/03/20 05:08:20;;;;;;;35.10;16.27;;;8.10;99.90;;;;;;5031696;28;20160;-71
2023/03/20 05:10:45;;;;;;;16.07;7.00;;;8.10;99.90;;;;;;5031847;28;20176;-71
2023/03/20 05:13:11;;;;;;;8.70;6.60;;;7.90;99.90;;;;;;5032584;28;20202;-71
2023/03/20 05:15:36;;;;;;;13.43;6.77;;;7.90;99.90;;;;;;5047468;28;20545;-71
2023/03/20 05:18:02;;;;;;;12.33;7.00;;;7.80;99.90;;;;;;5065169;28;20186;-71
2023/03/20 05:20:28;;;;;;;10.33;7.23;;;7.70;99.90;;;;;;5075788;28;20581;-71
2023/03/20 05:22:54;;;;;;;9.13;6.17;;;7.70;99.90;;;;;;5075670;28;20428;-71
2023/03/20 05:25:19;;;;;;;10.90;6.80;;;7.60;99.90;;;;;;5075589;28;20162;-71
2023/03/20 05:27:45;;;;;;;11.93;6.43;;;7.50;99.90;;;;;;5075275;28;20166;-71
2023/03/20 05:30:13;;;;;;;15.87;6.87;;;7.50;99.90;;;;;;5075556;28;20567;-72
2023/03/20 05:32:39;;;;;;;14.30;8.43;;;7.40;99.90;;;;;;5074125;28;20481;-71
2023/03/20 05:35:05;;;;;;;10.73;6.70;;;7.40;99.90;;;;;;5075463;28;20401;-71
2023/03/20 05:37:31;;;;;;;11.40;6.57;;;7.40;99.90;;;;;;5073879;28;20447;-72
2023/03/20 05:39:56;;;;;;;9.93;6.90;;;7.30;99.90;;;;;;5075335;28;20453;-71
2023/03/20 05:42:22;;;;;;;12.27;6.77;;;7.30;99.90;;;;;;5075478;28;20186;-71
2023/03/20 05:44:48;;;;;;;17.57;10.93;;;7.30;99.90;;;;;;5075190;28;20154;-72
2023/03/20 05:47:13;;;;;;;10.40;6.50;;;7.40;99.90;;;;;;5075030;28;20172;-72
2023/03/20 05:49:39;;;;;;;11.90;6.60;;;7.40;99.90;;;;;;5075151;28;20174;-71
2023/03/20 05:52:04;;;;;;;11.23;6.63;;;7.40;99.90;;;;;;5075118;28;20588;-71
2023/03/20 05:54:30;;;;;;;10.60;6.60;;;7.50;99.90;;;;;;5074972;28;20170;-71
2023/03/20 05:56:55;;;;;;;14.10;7.03;;;7.50;99.90;;;;;;5074662;28;20170;-70
2023/03/20 05:59:21;;;;;;;10.83;6.20;;;7.50;99.90;;;;;;5074988;28;20162;-71
2023/03/20 06:01:47;;;;;;;10.77;6.60;;;7.50;99.90;;;;;;5074596;28;20182;-71
2023/03/20 06:04:12;;;;;;;11.50;6.73;;;7.60;99.90;;;;;;5068381;28;20171;-70
2023/03/20 06:06:38;;;;;;;9.43;6.40;;;7.60;99.90;;;;;;5054974;28;20253;-71
2023/03/20 06:09:04;;;;;;;15.20;7.57;;;7.60;99.90;;;;;;5054505;28;20202;-71
2023/03/20 06:11:30;;;;;;;21.40;11.70;;;7.70;99.90;;;;;;5054604;28;20159;-71
2023/03/20 06:13:57;;;;;;;15.73;8.47;;;7.80;99.90;;;;;;5054559;28;20433;-71
2023/03/20 06:16:22;;;;;;;12.10;7.37;;;7.80;99.90;;;;;;5054586;28;20413;-70
2023/03/20 06:18:48;;;;;;;12.37;7.40;;;8.00;99.90;;;;;;5054276;28;20441;-71
2023/03/20 06:21:13;;;;;;;12.80;6.80;;;8.00;99.90;;;;;;5053270;28;20181;-71
2023/03/20 06:23:39;;;;;;;19.87;8.87;;;8.00;99.90;;;;;;5054249;28;20237;-70
2023/03/20 06:26:05;;;;;;;15.43;8.13;;;7.90;99.90;;;;;;5054439;28;20167;-71
2023/03/20 06:28:31;;;;;;;12.17;8.10;;;8.00;99.90;;;;;;5065049;28;20702;-71
2023/03/20 06:30:56;;;;;;;13.97;7.90;;;8.00;99.90;;;;;;5054383;28;20496;-71
2023/03/20 06:33:22;;;;;;;14.50;9.07;;;8.20;99.90;;;;;;5054147;28;20319;-71
2023/03/20 06:35:48;;;;;;;20.43;8.83;;;8.20;99.90;;;;;;5054306;28;20178;-71
2023/03/20 06:38:14;;;;;;;17.83;10.33;;;8.20;99.90;;;;;;5052554;28;20194;-71
2023/03/20 06:40:40;;;;;;;15.07;9.33;;;8.30;99.90;;;;;;5054115;28;20171;-72
2023/03/20 06:43:06;;;;;;;19.33;10.67;;;8.40;99.90;;;;;;5054066;28;20428;-70
2023/03/20 06:45:33;;;;;;;15.20;9.47;;;8.40;99.90;;;;;;5054153;28;20429;-71
2023/03/20 06:47:58;;;;;;;15.57;9.83;;;8.40;99.90;;;;;;5052731;28;20170;-71
2023/03/20 06:50:24;;;;;;;14.43;8.47;;;8.60;99.90;;;;;;5054137;28;20409;-71
2023/03/20 06:52:50;;;;;;;17.93;8.20;;;8.50;99.90;;;;;;5054027;28;20265;-71
2023/03/20 06:55:15;;;;;;;17.37;9.57;;;8.50;99.90;;;;;;5053889;28;20405;-71
2023/03/20 06:57:41;;;;;;;15.90;8.10;;;8.60;99.90;;;;;;5053540;28;20229;-71
2023/03/20 07:00:09;;;;;;;16.20;8.20;;;8.80;99.90;;;;;;5053930;28;20163;-71
2023/03/20 07:02:34;;;;;;;11.67;7.73;;;8.90;99.90;;;;;;5053855;28;20183;-71
2023/03/20 07:05:00;;;;;;;10.47;7.57;;;9.10;99.90;;;;;;5040984;28;20506;-71
2023/03/20 07:07:26;;;;;;;15.83;8.70;;;9.20;99.90;;;;;;5033498;28;20493;-70
2023/03/20 07:09:51;;;;;;;14.20;8.17;;;9.20;99.90;;;;;;5033828;28;20172;-71
2023/03/20 07:12:20;;;;;;;13.03;7.87;;;9.40;99.90;;;;;;5033787;28;20191;-71
2023/03/20 07:14:45;;;;;;;13.47;8.77;;;9.60;99.90;;;;;;5033831;28;20271;-71
2023/03/20 07:17:12;;;;;;;11.40;8.07;;;9.80;99.90;;;;;;5033560;28;21010;-71
2023/03/20 07:19:37;;;;;;;12.20;7.13;;;10.00;99.90;;;;;;5034270;28;20213;-71
2023/03/20 07:22:06;;;;;;;14.27;7.43;;;10.10;99.90;;;;;;5034280;28;20418;-71
2023/03/20 07:24:32;;;;;;;12.93;8.00;;;10.20;99.90;;;;;;5034266;28;20528;-71
2023/03/20 07:26:58;;;;;;;10.97;6.70;;;10.30;99.90;;;;;;5032252;28;20455;-71
2023/03/20 07:29:24;;;;;;;9.43;6.00;;;10.40;99.90;;;;;;5034322;28;20390;-71
2023/03/20 07:31:49;;;;;;;9.80;7.03;;;10.30;99.90;;;;;;5032941;28;20191;-70
2023/03/20 07:34:15;;;;;;;10.23;6.93;;;10.10;99.90;;;;;;5033978;28;20164;-70
2023/03/20 07:36:40;;;;;;;12.53;5.37;;;10.00;99.90;;;;;;5033472;28;20504;-71
2023/03/20 07:39:07;;;;;;;6.23;5.33;;;9.90;99.90;;;;;;5052757;28;20670;-71
2023/03/20 07:41:32;;;;;;;11.07;6.57;;;10.10;99.90;;;;;;5058748;28;20656;-71
2023/03/20 07:43:58;;;;;;;8.40;5.37;;;10.20;99.90;;;;;;5053917;28;20480;-71
2023/03/20 07:46:25;;;;;;;12.37;6.20;;;10.00;99.90;;;;;;5053218;28;20178;-69
2023/03/20 07:48:50;;;;;;;7.50;4.77;;;10.10;99.90;;;;;;5052691;28;20171;-68
2023/03/20 07:51:16;;;;;;;8.60;6.57;;;10.10;99.90;;;;;;5052883;28;20455;-69
2023/03/20 07:53:41;;;;;;;8.80;5.17;;;10.20;99.90;;;;;;5052764;28;20587;-69
2023/03/20 07:56:07;;;;;;;7.70;5.13;;;10.30;99.90;;;;;;5052751;28;20178;-69
2023/03/20 07:58:33;;;;;;;9.30;5.00;;;10.50;99.90;;;;;;5052352;28;20194;-68
2023/03/20 08:00:58;;;;;;;8.10;4.87;;;10.60;99.90;;;;;;5052688;28;20458;-69
2023/03/20 08:03:24;;;;;;;5.80;4.60;;;10.70;99.90;;;;;;5052581;28;20190;-69
2023/03/20 08:05:50;;;;;;;6.20;4.60;;;10.90;99.90;;;;;;5032858;28;20168;-69
2023/03/20 08:08:15;;;;;;;7.93;4.20;;;11.10;99.90;;;;;;5032389;28;20171;-68
2023/03/20 08:10:41;;;;;;;10.27;4.30;;;11.30;99.90;;;;;;5032593;28;20652;-69
2023/03/20 08:13:06;;;;;;;6.70;4.73;;;11.50;99.90;;;;;;5032793;28;20214;-69
2023/03/20 08:15:32;;;;;;;6.13;4.00;;;11.50;99.90;;;;;;5032594;28;20175;-69
2023/03/20 08:17:57;;;;;;;8.70;5.57;;;11.40;99.90;;;;;;5032213;28;20191;-69
2023/03/20 08:20:23;;;;;;;8.13;4.47;;;11.30;99.90;;;;;;5032529;28;20175;-68
2023/03/20 08:22:49;;;;;;;6.97;4.73;;;11.50;99.90;;;;;;5032340;28;20714;-71
2023/03/20 08:25:15;;;;;;;8.97;4.80;;;11.50;99.90;;;;;;5032294;28;20198;-71
2023/03/20 08:27:40;;;;;;;6.67;4.93;;;11.50;99.90;;;;;;5032406;28;20202;-72
2023/03/20 08:30:07;;;;;;;6.87;4.03;;;11.50;99.90;;;;;;5032305;28;20199;-71
2023/03/20 08:32:33;;;;;;;4.77;3.43;;;11.60;99.90;;;;;;5032285;28;20194;-71
2023/03/20 08:34:58;;;;;;;7.40;5.03;;;11.70;99.90;;;;;;5032272;28;20402;-71
2023/03/20 08:37:24;;;;;;;6.33;4.83;;;11.90;99.90;;;;;;5031912;28;20601;-71
2023/03/20 08:39:49;;;;;;;6.50;5.00;;;12.10;99.90;;;;;;5032190;28;20167;-71
2023/03/20 08:42:15;;;;;;;7.77;4.50;;;12.10;99.90;;;;;;5032093;28;20237;-71
2023/03/20 08:44:41;;;;;;;6.83;5.10;;;12.10;99.90;;;;;;5032166;28;20155;-72
2023/03/20 08:47:09;;;;;;;5.70;3.87;;;12.10;99.90;;;;;;5043038;28;20784;-71
2023/03/20 08:49:35;;;;;;;9.77;5.30;;;12.20;99.90;;;;;;5062917;28;20172;-71
2023/03/20 08:52:01;;;;;;;12.33;5.93;;;12.50;99.90;;;;;;5071915;28;20408;-71
2023/03/20 08:54:27;;;;;;;8.13;5.27;;;12.60;99.90;;;;;;5071933;28;20436;-71
2023/03/20 08:56:52;;;;;;;9.87;5.87;;;12.80;99.90;;;;;;5071666;28;20158;-71
2023/03/20 08:59:18;;;;;;;9.60;5.07;;;13.00;99.90;;;;;;5071968;28;20178;-71
2023/03/20 09:01:44;;;;;;;6.33;5.07;;;13.40;99.90;;;;;;5071842;28;20574;-71
2023/03/20 09:04:12;;;;;;;9.80;5.27;;;13.70;99.90;;;;;;5064554;28;20194;-71
2023/03/20 09:06:38;;;;;;;11.93;5.50;;;14.00;99.90;;;;;;5051644;28;20394;-72
2023/03/20 09:09:04;;;;;;;10.90;6.00;;;13.90;99.90;;;;;;5051564;28;21083;-72
2023/03/20 09:11:29;;;;;;;7.70;5.57;;;13.50;99.90;;;;;;5051694;28;20425;-71
2023/03/20 09:13:55;;;;;;;11.00;4.73;;;13.50;99.90;;;;;;5051698;28;20256;-71
2023/03/20 09:16:20;;;;;;;6.70;5.73;;;13.50;99.90;;;;;;5051724;28;20171;-72
2023/03/20 09:18:46;;;;;;;7.50;5.43;;;13.60;99.90;;;;;;5051005;28;20190;-72
2023/03/20 09:21:11;;;;;;;6.97;5.83;;;13.60;99.90;;;;;;5051649;28;20171;-71
2023/03/20 09:23:37;;;;;;;10.93;5.53;;;13.60;99.90;;;;;;5051607;28;20183;-71
2023/03/20 09:26:02;;;;;;;7.43;4.87;;;13.70;99.90;;;;;;5051638;28;20250;-71
2023/03/20 09:28:28;;;;;;;16.50;5.53;;;13.60;99.90;;;;;;5051383;28;20163;-72
2023/03/20 09:30:55;;;;;;;10.60;6.50;;;13.70;99.90;;;;;;5050363;28;20328;-71
2023/03/20 09:33:21;;;;;;;8.90;6.10;;;13.50;99.90;;;;;;5051540;28;20194;-71
2023/03/20 09:35:46;;;;;;;11.20;5.90;;;13.70;99.90;;;;;;5051576;28;20913;-72
2023/03/20 09:38:13;;;;;;;8.00;6.40;;;14.00;99.90;;;;;;5051165;28;20193;-71
2023/03/20 09:40:54;;;;;;;6.70;5.03;;;14.20;99.90;;;;;;5051559;28;20651;-72
2023/03/20 09:43:47;;;;;;;10.23;5.87;;;14.50;99.90;;;;;;5051464;28;20874;-71
2023/03/20 09:46:25;;;;;;;9.57;4.90;;;14.50;99.90;;;;;;5051456;28;20394;-72
2023/03/20 09:49:15;;;;;;;9.27;5.87;;;14.00;99.90;;;;;;5051164;28;20456;-72
2023/03/20 09:51:54;;;;;;;7.13;5.03;;;13.80;99.90;;;;;;5051411;28;20471;-71
2023/03/20 09:54:26;;;;;;;8.90;4.67;;;13.30;99.90;;;;;;5063610;28;20412;-71
2023/03/20 09:56:55;;;;;;;6.87;4.27;;;13.40;99.90;;;;;;5051017;28;20405;-71
2023/03/20 09:59:22;;;;;;;6.00;3.83;;;13.40;99.90;;;;;;5052530;28;20758;-71
2023/03/20 10:01:52;;;;;;;5.83;4.17;;;13.40;99.90;;;;;;5054962;28;20496;-71
2023/03/20 10:04:18;;;;;;;8.40;4.30;;;12.90;99.90;;;;;;5046710;28;20411;-72
2023/03/20 10:06:44;;;;;;;4.53;3.40;;;12.80;99.90;;;;;;5034970;28;20406;-71
2023/03/20 10:09:21;;;;;;;5.80;4.20;;;13.00;99.90;;;;;;5034622;28;20410;-71
2023/03/20 10:12:20;;;;;;;4.47;2.97;;;13.30;99.90;;;;;;5034872;28;20191;-72
2023/03/20 10:14:48;;;;;;;8.63;3.47;;;13.90;99.90;;;;;;5034650;28;20425;-71
2023/03/20 10:17:26;;;;;;;5.70;4.00;;;14.20;99.90;;;;;;5034237;28;20926;-72
2023/03/20 10:20:12;;;;;;;4.57;2.97;;;14.30;99.90;;;;;;5034745;28;20387;-71
2023/03/20 10:22:46;;;;;;;4.43;3.00;;;14.30;99.90;;;;;;5034645;28;20418;-72
2023/03/20 10:25:23;;;;;;;4.30;2.80;;;14.50;99.30;;;;;;5034586;28;20394;-71
2023/03/20 10:28:10;;;;;;;6.60;3.47;;;14.20;95.60;;;;;;5034406;28;20417;-71
2023/03/20 10:30:45;;;;;;;4.30;3.30;;;13.80;94.70;;;;;;5033594;28;20413;-71
2023/03/20 10:33:29;;;;;;;4.83;3.13;;;13.70;96.00;;;;;;5034372;28;20430;-71
2023/03/20 10:36:13;;;;;;;9.60;2.53;;;13.70;98.10;;;;;;5034271;28;20488;-72
2023/03/20 10:38:41;;;;;;;6.20;3.73;;;13.60;97.10;;;;;;5034122;28;20553;-72
2023/03/20 10:41:14;;;;;;;4.20;2.67;;;13.20;96.20;;;;;;5034172;28;20492;-71
2023/03/20 10:43:42;;;;;;;3.80;2.93;;;13.00;96.50;;;;;;5034282;28;20410;-72
2023/03/20 10:46:13;;;;;;;4.80;3.37;;;12.70;97.50;;;;;;5034331;28;20482;-71
2023/03/20 10:49:01;;;;;;;6.70;3.10;;;12.60;99.50;;;;;;5033908;28;20398;-72
2023/03/20 10:51:51;;;;;;;4.07;2.90;;;12.70;99.90;;;;;;5032853;28;20465;-72
2023/03/20 10:54:27;;;;;;;2.77;2.27;;;13.00;99.90;;;;;;5034156;28;20410;-72
2023/03/20 10:56:56;;;;;;;3.40;2.17;;;13.10;99.90;;;;;;5033572;28;20402;-72
2023/03/20 10:59:24;;;;;;;6.03;3.27;;;13.40;99.90;;;;;;5033917;28;20461;-72
2023/03/20 11:01:50;;;;;;;10.80;2.60;;;13.50;99.90;;;;;;5034017;28;20426;-71
2023/03/20 11:04:15;;;;;;;3.30;2.40;;;13.50;99.00;;;;;;5040009;28;20540;-71
2023/03/20 11:07:02;;;;;;;3.47;2.70;;;13.60;99.40;;;;;;5064856;28;20166;-70
2023/03/20 11:09:31;;;;;;;3.37;2.70;;;13.80;99.90;;;;;;5053829;28;20159;-72
2023/03/20 11:11:59;;;;;;;6.70;2.80;;;13.70;99.00;;;;;;5052842;28;21128;-73
2023/03/20 11:14:31;;;;;;;2.00;1.80;;;13.40;98.20;;;;;;5053768;28;20814;-69
2023/03/20 11:17:00;;;;;;;6.63;3.00;;;13.60;99.00;;;;;;5053367;28;20416;-70
2023/03/20 11:19:26;;;;;;;5.70;2.73;;;13.40;98.20;;;;;;5053614;28;20441;-65
2023/03/20 11:21:56;;;;;;;4.93;4.33;;;13.10;98.50;;;;;;5053673;28;20518;-71
2023/03/20 11:24:41;;;;;;;4.60;3.10;;;13.00;99.10;;;;;;5053221;28;20208;-70
2023/03/20 11:27:11;;;;;;;5.07;3.03;;;12.70;99.10;;;;;;5053194;28;20436;-72
2023/03/20 11:29:40;;;;;;;8.83;3.40;;;12.40;99.90;;;;;;5052173;28;20398;-71
2023/03/20 11:32:14;;;;;;;4.73;3.07;;;12.10;99.90;;;;;;5053321;28;20960;-69
2023/03/20 11:34:42;;;;;;;7.20;2.50;;;11.90;99.90;;;;;;5053392;28;20385;-69
2023/03/20 11:37:24;;;;;;;12.53;3.47;;;11.90;99.90;;;;;;5052585;28;20393;-70
2023/03/20 11:40:13;;;;;;;4.50;2.17;;;12.00;99.90;;;;;;5053606;28;20408;-71
2023/03/20 11:42:38;;;;;;;3.90;2.10;;;12.10;99.90;;;;;;5053173;28;20818;-70
2023/03/20 11:45:15;;;;;;;3.60;2.43;;;12.20;99.90;;;;;;5053223;28;20393;-70
2023/03/20 11:47:41;;;;;;;7.00;2.37;;;12.50;99.90;;;;;;5052778;28;20573;-70
2023/03/20 11:50:26;;;;;;;7.00;2.80;;;12.80;99.90;;;;;;5052939;28;20437;-70
2023/03/20 11:52:52;;;;;;;3.30;2.47;;;12.90;99.90;;;;;;5052019;28;20521;-72
2023/03/20 11:55:26;;;;;;;5.00;2.23;;;12.80;99.90;;;;;;5053433;28;20965;-72
2023/03/20 11:57:57;;;;;;;2.70;2.40;;;12.60;99.90;;;;;;5052581;28;20460;-70
2023/03/20 12:00:28;;;;;;;3.63;2.13;;;12.50;99.90;;;;;;5052706;28;20492;-70
2023/03/20 12:02:54;;;;;;;7.60;3.20;;;12.30;99.90;;;;;;5052258;28;20417;-70
2023/03/20 12:05:38;;;;;;;7.73;2.73;;;12.10;99.90;;;;;;5036970;28;20749;-70
2023/03/20 12:08:18;;;;;;;5.10;2.33;;;12.30;99.90;;;;;;5032394;28;20232;-70
2023/03/20 12:10:52;;;;;;;3.77;2.37;;;12.20;99.90;;;;;;5032722;28;20421;-70
2023/03/20 12:13:27;;;;;;;3.53;2.47;;;12.10;99.90;;;;;;5032479;28;20488;-70
2023/03/20 12:16:03;;;;;;;5.30;3.33;;;12.00;99.90;;;;;;5040030;28;20409;-70
2023/03/20 12:18:44;;;;;;;5.10;3.07;;;11.90;99.90;;;;;;5061376;28;20471;-70
2023/03/20 12:21:23;;;;;;;2.63;2.27;;;12.20;99.90;;;;;;5052344;28;20410;-70
2023/03/20 12:24:21;;;;;;;2.40;2.07;;;12.60;99.90;;;;;;5050929;28;20404;-70
2023/03/20 12:27:14;;;;;;;5.87;2.07;;;13.10;99.90;;;;;;5052159;28;20393;-70
2023/03/20 12:29:47;;;;;;;5.77;2.50;;;13.40;99.90;;;;;;5052465;28;20394;-72
2023/03/20 12:32:23;;;;;;;5.37;2.13;;;13.40;99.90;;;;;;5052082;28;20849;-70
2023/03/20 12:34:56;;;;;;;7.53;3.07;;;13.30;99.90;;;;;;5051987;28;20484;-71
2023/03/20 12:37:22;;;;;;;2.03;1.80;;;13.50;99.90;;;;;;5051890;28;20456;-71
2023/03/20 12:39:54;;;;;;;2.70;1.83;;;13.60;99.90;;;;;;5052187;28;20772;-70
2023/03/20 12:42:52;;;;;;;3.50;2.00;;;13.70;99.90;;;;;;5052101;28;20748;-70
2023/03/20 12:45:20;;;;;;;2.80;2.27;;;14.00;99.90;;;;;;5051821;28;20419;-70
2023/03/20 12:48:21;;;;;;;2.37;1.57;;;14.10;99.90;;;;;;5051633;28;20410;-69
2023/03/20 12:51:03;;;;;;;2.70;1.63;;;14.40;99.90;;;;;;5052184;28;20386;-71
2023/03/20 12:53:45;;;;;;;2.67;1.63;;;14.50;99.90;;;;;;5051989;28;20421;-71
2023/03/20 12:56:30;;;;;;;4.10;1.30;;;14.90;99.90;;;;;;5051875;28;20399;-70
2023/03/20 12:59:00;;;;;;;3.83;1.97;;;15.10;99.90;;;;;;5051636;28;20539;-71
2023/03/20 13:01:31;;;;;;;3.03;1.83;;;15.10;98.00;;;;;;5052415;28;20434;-69